sensor_id;sensor_type;location;lat;lon;timestamp;P1;durP1;ratioP1;P2;durP2;ratioP2
14143;SDS011;7152;48.348;10.980;2023-02-15T00:01:29;78.03;;;17.27;;
14143;SDS011;7152;48.348;10.980;2023-02-15T00:03:55;58.40;;;16.80;;
14143;SDS011;7152;48.348;10.980;2023-02-15T00:06:21;69.97;;;17.90;;
14143;SDS011;7152;48.348;10.980;2023-02-15T00:08:47;51.20;;;17.47;;
14143;SDS011;7152;48.348;10.980;2023-02-15T00:11:13;78.53;;;18.33;;
14143;SDS011;7152;48.348;10.980;2023-02-15T00:13:41;83.00;;;20.60;;
14143;SDS011;7152;48.348;10.980;2023-02-15T00:16:07;47.73;;;16.43;;
14143;SDS011;7152;48.348;10.980;2023-02-15T00:18:38;72.33;;;18.30;;
14143;SDS011;7152;48.348;10.980;2023-02-15T00:21:05;98.53;;;18.60;;
14143;SDS011;7152;48.348;10.980;2023-02-15T00:23:32;46.50;;;14.87;;
14143;SDS011;7152;48.348;10.980;2023-02-15T00:26:11;66.40;;;16.67;;
14143;SDS011;7152;48.348;10.980;2023-02-15T00:28:37;56.57;;;17.80;;
14143;SDS011;7152;48.348;10.980;2023-02-15T00:31:10;96.30;;;18.63;;
14143;SDS011;7152;48.348;10.980;2023-02-15T00:33:37;78.43;;;19.20;;
14143;SDS011;7152;48.348;10.980;2023-02-15T00:36:04;82.47;;;17.87;;
14143;SDS011;7152;48.348;10.980;2023-02-15T00:38:31;72.40;;;16.97;;
14143;SDS011;7152;48.348;10.980;2023-02-15T00:40:58;56.97;;;16.43;;
14143;SDS011;7152;48.348;10.980;2023-02-15T00:43:26;51.43;;;16.27;;
14143;SDS011;7152;48.348;10.980;2023-02-15T00:45:52;90.47;;;18.23;;
14143;SDS011;7152;48.348;10.980;2023-02-15T00:48:18;110.50;;;20.73;;
14143;SDS011;7152;48.348;10.980;2023-02-15T00:50:54;110.87;;;18.73;;
14143;SDS011;7152;48.348;10.980;2023-02-15T00:53:22;45.23;;;15.77;;
14143;SDS011;7152;48.348;10.980;2023-02-15T00:55:49;76.07;;;17.57;;
14143;SDS011;7152;48.348;10.980;2023-02-15T00:58:15;46.53;;;16.10;;
14143;SDS011;7152;48.348;10.980;2023-02-15T01:00:42;93.43;;;20.83;;
14143;SDS011;7152;48.348;10.980;2023-02-15T01:03:10;92.77;;;16.77;;
14143;SDS011;7152;48.348;10.980;2023-02-15T01:05:36;69.23;;;17.03;;
14143;SDS011;7152;48.348;10.980;2023-02-15T01:08:02;79.13;;;20.00;;
14143;SDS011;7152;48.348;10.980;2023-02-15T01:10:28;92.40;;;17.93;;
14143;SDS011;7152;48.348;10.980;2023-02-15T01:12:54;65.53;;;16.07;;
14143;SDS011;7152;48.348;10.980;2023-02-15T01:15:20;158.33;;;22.03;;
14143;SDS011;7152;48.348;10.980;2023-02-15T01:17:46;95.90;;;18.23;;
14143;SDS011;7152;48.348;10.980;2023-02-15T01:20:17;48.03;;;16.63;;
14143;SDS011;7152;48.348;10.980;2023-02-15T01:22:47;93.10;;;18.97;;
14143;SDS011;7152;48.348;10.980;2023-02-15T01:25:15;99.87;;;18.17;;
14143;SDS011;7152;48.348;10.980;2023-02-15T01:27:44;100.67;;;19.10;;
14143;SDS011;7152;48.348;10.980;2023-02-15T01:30:11;92.77;;;18.30;;
14143;SDS011;7152;48.348;10.980;2023-02-15T01:32:38;72.63;;;17.83;;
14143;SDS011;7152;48.348;10.980;2023-02-15T01:35:04;94.60;;;21.03;;
14143;SDS011;7152;48.348;10.980;2023-02-15T01:37:33;87.60;;;19.57;;
14143;SDS011;7152;48.348;10.980;2023-02-15T01:39:59;97.23;;;17.90;;
14143;SDS011;7152;48.348;10.980;2023-02-15T01:42:26;94.83;;;22.03;;
14143;SDS011;7152;48.348;10.980;2023-02-15T01:44:57;75.37;;;16.80;;
14143;SDS011;7152;48.348;10.980;2023-02-15T01:50:30;44.33;;;15.13;;
14143;SDS011;7152;48.348;10.980;2023-02-15T01:53:05;37.40;;;15.40;;
14143;SDS011;7152;48.348;10.980;2023-02-15T01:55:36;36.47;;;16.23;;
14143;SDS011;7152;48.348;10.980;2023-02-15T01:58:05;56.40;;;20.03;;
14143;SDS011;7152;48.348;10.980;2023-02-15T02:00:31;85.50;;;16.57;;
14143;SDS011;7152;48.348;10.980;2023-02-15T02:02:58;92.67;;;18.50;;
14143;SDS011;7152;48.348;10.980;2023-02-15T02:05:26;46.93;;;14.90;;
14143;SDS011;7152;48.348;10.980;2023-02-15T02:07:53;83.50;;;17.67;;
14143;SDS011;7152;48.348;10.980;2023-02-15T02:10:24;86.07;;;18.60;;
14143;SDS011;7152;48.348;10.980;2023-02-15T02:12:51;79.00;;;17.27;;
14143;SDS011;7152;48.348;10.980;2023-02-15T02:15:21;72.17;;;16.17;;
14143;SDS011;7152;48.348;10.980;2023-02-15T02:18:15;99.10;;;18.23;;
14143;SDS011;7152;48.348;10.980;2023-02-15T02:20:59;44.43;;;14.50;;
14143;SDS011;7152;48.348;10.980;2023-02-15T02:45:43;124.37;;;22.57;;
14143;SDS011;7152;48.348;10.980;2023-02-15T02:48:18;70.37;;;15.13;;
14143;SDS011;7152;48.348;10.980;2023-02-15T02:50:48;86.47;;;16.57;;
14143;SDS011;7152;48.348;10.980;2023-02-15T02:53:14;71.50;;;16.17;;
14143;SDS011;7152;48.348;10.980;2023-02-15T02:58:19;48.37;;;14.70;;
14143;SDS011;7152;48.348;10.980;2023-02-15T03:00:55;78.90;;;15.70;;
14143;SDS011;7152;48.348;10.980;2023-02-15T03:03:30;67.57;;;15.90;;
14143;SDS011;7152;48.348;10.980;2023-02-15T03:06:10;65.63;;;15.17;;
14143;SDS011;7152;48.348;10.980;2023-02-15T03:08:43;66.57;;;16.07;;
14143;SDS011;7152;48.348;10.980;2023-02-15T03:11:13;99.90;;;17.20;;
14143;SDS011;7152;48.348;10.980;2023-02-15T03:13:39;41.67;;;16.00;;
14143;SDS011;7152;48.348;10.980;2023-02-15T03:16:06;49.30;;;13.90;;
14143;SDS011;7152;48.348;10.980;2023-02-15T03:21:41;85.97;;;16.33;;
14143;SDS011;7152;48.348;10.980;2023-02-15T03:24:22;66.03;;;17.60;;
14143;SDS011;7152;48.348;10.980;2023-02-15T03:26:51;48.97;;;17.93;;
14143;SDS011;7152;48.348;10.980;2023-02-15T03:29:19;70.27;;;14.60;;
14143;SDS011;7152;48.348;10.980;2023-02-15T03:31:48;64.93;;;14.77;;
14143;SDS011;7152;48.348;10.980;2023-02-15T03:34:18;60.00;;;14.70;;
14143;SDS011;7152;48.348;10.980;2023-02-15T03:37:00;56.93;;;16.03;;
14143;SDS011;7152;48.348;10.980;2023-02-15T03:39:42;49.90;;;15.60;;
14143;SDS011;7152;48.348;10.980;2023-02-15T03:42:18;82.33;;;13.90;;
14143;SDS011;7152;48.348;10.980;2023-02-15T03:45:03;51.20;;;14.77;;
14143;SDS011;7152;48.348;10.980;2023-02-15T03:47:37;56.37;;;14.43;;
14143;SDS011;7152;48.348;10.980;2023-02-15T03:52:57;56.67;;;13.73;;
14143;SDS011;7152;48.348;10.980;2023-02-15T03:55:25;68.73;;;15.27;;
14143;SDS011;7152;48.348;10.980;2023-02-15T03:57:51;103.73;;;18.47;;
14143;SDS011;7152;48.348;10.980;2023-02-15T04:00:37;85.90;;;16.50;;
14143;SDS011;7152;48.348;10.980;2023-02-15T04:03:29;42.40;;;12.77;;
14143;SDS011;7152;48.348;10.980;2023-02-15T04:06:05;48.23;;;14.20;;
14143;SDS011;7152;48.348;10.980;2023-02-15T04:08:31;47.23;;;14.27;;
14143;SDS011;7152;48.348;10.980;2023-02-15T04:11:15;48.63;;;14.47;;
14143;SDS011;7152;48.348;10.980;2023-02-15T04:13:41;43.87;;;13.27;;
14143;SDS011;7152;48.348;10.980;2023-02-15T04:16:07;83.77;;;15.93;;
14143;SDS011;7152;48.348;10.980;2023-02-15T04:18:37;83.13;;;15.17;;
14143;SDS011;7152;48.348;10.980;2023-02-15T04:21:26;50.40;;;13.57;;
14143;SDS011;7152;48.348;10.980;2023-02-15T04:24:12;36.60;;;13.20;;
14143;SDS011;7152;48.348;10.980;2023-02-15T04:26:57;82.10;;;16.47;;
14143;SDS011;7152;48.348;10.980;2023-02-15T04:29:23;46.27;;;12.83;;
14143;SDS011;7152;48.348;10.980;2023-02-15T04:31:49;64.70;;;13.67;;
14143;SDS011;7152;48.348;10.980;2023-02-15T04:34:16;63.30;;;14.07;;
14143;SDS011;7152;48.348;10.980;2023-02-15T04:36:42;108.30;;;20.33;;
14143;SDS011;7152;48.348;10.980;2023-02-15T04:39:08;39.40;;;11.77;;
14143;SDS011;7152;48.348;10.980;2023-02-15T04:41:34;46.87;;;13.33;;
14143;SDS011;7152;48.348;10.980;2023-02-15T04:44:00;53.80;;;13.37;;
14143;SDS011;7152;48.348;10.980;2023-02-15T04:46:27;41.73;;;11.90;;
14143;SDS011;7152;48.348;10.980;2023-02-15T04:48:53;55.20;;;14.07;;
14143;SDS011;7152;48.348;10.980;2023-02-15T04:51:19;52.03;;;12.80;;
14143;SDS011;7152;48.348;10.980;2023-02-15T04:53:45;43.53;;;12.97;;
14143;SDS011;7152;48.348;10.980;2023-02-15T04:56:11;45.90;;;13.27;;
14143;SDS011;7152;48.348;10.980;2023-02-15T04:58:36;64.43;;;17.40;;
14143;SDS011;7152;48.348;10.980;2023-02-15T05:01:05;52.03;;;13.40;;
14143;SDS011;7152;48.348;10.980;2023-02-15T05:03:32;28.60;;;12.03;;
14143;SDS011;7152;48.348;10.980;2023-02-15T05:05:57;26.53;;;11.63;;
14143;SDS011;7152;48.348;10.980;2023-02-15T05:08:23;18.47;;;9.50;;
14143;SDS011;7152;48.348;10.980;2023-02-15T05:10:48;33.77;;;11.00;;
14143;SDS011;7152;48.348;10.980;2023-02-15T05:13:14;47.80;;;11.53;;
14143;SDS011;7152;48.348;10.980;2023-02-15T05:15:40;30.57;;;10.97;;
14143;SDS011;7152;48.348;10.980;2023-02-15T05:18:06;33.20;;;13.53;;
14143;SDS011;7152;48.348;10.980;2023-02-15T05:20:32;42.00;;;11.53;;
14143;SDS011;7152;48.348;10.980;2023-02-15T05:22:58;21.67;;;11.20;;
14143;SDS011;7152;48.348;10.980;2023-02-15T05:25:24;20.30;;;10.83;;
14143;SDS011;7152;48.348;10.980;2023-02-15T05:28:09;26.87;;;10.73;;
14143;SDS011;7152;48.348;10.980;2023-02-15T05:30:48;36.07;;;12.90;;
14143;SDS011;7152;48.348;10.980;2023-02-15T05:33:25;80.43;;;13.33;;
14143;SDS011;7152;48.348;10.980;2023-02-15T05:35:51;48.03;;;12.47;;
14143;SDS011;7152;48.348;10.980;2023-02-15T05:38:17;42.97;;;11.50;;
14143;SDS011;7152;48.348;10.980;2023-02-15T05:40:42;89.10;;;15.73;;
14143;SDS011;7152;48.348;10.980;2023-02-15T05:43:08;39.50;;;11.80;;
14143;SDS011;7152;48.348;10.980;2023-02-15T05:45:34;32.77;;;11.43;;
14143;SDS011;7152;48.348;10.980;2023-02-15T05:47:59;27.23;;;11.53;;
14143;SDS011;7152;48.348;10.980;2023-02-15T05:50:25;22.40;;;11.60;;
14143;SDS011;7152;48.348;10.980;2023-02-15T05:52:51;54.03;;;12.90;;
14143;SDS011;7152;48.348;10.980;2023-02-15T05:55:17;33.10;;;12.67;;
14143;SDS011;7152;48.348;10.980;2023-02-15T05:57:43;41.93;;;13.90;;
14143;SDS011;7152;48.348;10.980;2023-02-15T06:00:09;29.43;;;13.83;;
14143;SDS011;7152;48.348;10.980;2023-02-15T06:02:36;24.90;;;12.93;;
14143;SDS011;7152;48.348;10.980;2023-02-15T06:05:03;46.70;;;13.93;;
14143;SDS011;7152;48.348;10.980;2023-02-15T06:07:29;28.90;;;12.23;;
14143;SDS011;7152;48.348;10.980;2023-02-15T06:09:55;41.13;;;15.47;;
14143;SDS011;7152;48.348;10.980;2023-02-15T06:12:21;53.30;;;13.63;;
14143;SDS011;7152;48.348;10.980;2023-02-15T06:14:46;39.87;;;13.73;;
14143;SDS011;7152;48.348;10.980;2023-02-15T06:17:12;24.67;;;12.30;;
14143;SDS011;7152;48.348;10.980;2023-02-15T06:19:38;35.40;;;13.10;;
14143;SDS011;7152;48.348;10.980;2023-02-15T06:22:03;81.67;;;15.27;;
14143;SDS011;7152;48.348;10.980;2023-02-15T06:24:29;22.30;;;12.03;;
14143;SDS011;7152;48.348;10.980;2023-02-15T06:26:54;31.23;;;11.83;;
14143;SDS011;7152;48.348;10.980;2023-02-15T06:29:20;50.70;;;13.30;;
14143;SDS011;7152;48.348;10.980;2023-02-15T06:31:45;33.77;;;12.00;;
14143;SDS011;7152;48.348;10.980;2023-02-15T06:34:11;23.70;;;13.57;;
14143;SDS011;7152;48.348;10.980;2023-02-15T06:36:37;30.87;;;12.30;;
14143;SDS011;7152;48.348;10.980;2023-02-15T06:39:03;22.97;;;11.23;;
14143;SDS011;7152;48.348;10.980;2023-02-15T06:41:29;60.43;;;13.73;;
14143;SDS011;7152;48.348;10.980;2023-02-15T06:43:54;35.50;;;12.70;;
14143;SDS011;7152;48.348;10.980;2023-02-15T06:46:20;26.67;;;11.80;;
14143;SDS011;7152;48.348;10.980;2023-02-15T06:48:45;22.17;;;12.40;;
14143;SDS011;7152;48.348;10.980;2023-02-15T06:51:11;24.17;;;12.17;;
14143;SDS011;7152;48.348;10.980;2023-02-15T06:53:37;37.63;;;12.90;;
14143;SDS011;7152;48.348;10.980;2023-02-15T06:56:03;20.67;;;12.17;;
14143;SDS011;7152;48.348;10.980;2023-02-15T06:58:32;24.57;;;12.27;;
14143;SDS011;7152;48.348;10.980;2023-02-15T07:00:58;31.17;;;14.03;;
14143;SDS011;7152;48.348;10.980;2023-02-15T07:03:24;24.20;;;14.07;;
14143;SDS011;7152;48.348;10.980;2023-02-15T07:05:53;20.47;;;12.40;;
14143;SDS011;7152;48.348;10.980;2023-02-15T07:08:20;15.63;;;12.10;;
14143;SDS011;7152;48.348;10.980;2023-02-15T07:10:46;18.10;;;12.07;;
14143;SDS011;7152;48.348;10.980;2023-02-15T07:13:14;53.40;;;13.80;;
14143;SDS011;7152;48.348;10.980;2023-02-15T07:15:39;46.13;;;13.47;;
14143;SDS011;7152;48.348;10.980;2023-02-15T07:18:05;49.37;;;13.20;;
14143;SDS011;7152;48.348;10.980;2023-02-15T07:20:30;16.70;;;11.73;;
14143;SDS011;7152;48.348;10.980;2023-02-15T07:22:58;21.10;;;11.23;;
14143;SDS011;7152;48.348;10.980;2023-02-15T07:25:23;19.30;;;10.53;;
14143;SDS011;7152;48.348;10.980;2023-02-15T07:27:55;22.80;;;11.00;;
14143;SDS011;7152;48.348;10.980;2023-02-15T07:30:22;41.70;;;14.37;;
14143;SDS011;7152;48.348;10.980;2023-02-15T07:32:47;41.10;;;13.03;;
14143;SDS011;7152;48.348;10.980;2023-02-15T07:35:32;30.40;;;12.10;;
14143;SDS011;7152;48.348;10.980;2023-02-15T07:37:58;33.50;;;12.57;;
14143;SDS011;7152;48.348;10.980;2023-02-15T07:40:24;90.73;;;17.27;;
14143;SDS011;7152;48.348;10.980;2023-02-15T07:42:50;52.33;;;13.53;;
14143;SDS011;7152;48.348;10.980;2023-02-15T07:45:19;31.37;;;12.33;;
14143;SDS011;7152;48.348;10.980;2023-02-15T07:47:46;74.20;;;15.07;;
14143;SDS011;7152;48.348;10.980;2023-02-15T07:50:12;32.60;;;12.33;;
14143;SDS011;7152;48.348;10.980;2023-02-15T07:52:38;15.83;;;11.83;;
14143;SDS011;7152;48.348;10.980;2023-02-15T07:55:03;21.77;;;12.60;;
14143;SDS011;7152;48.348;10.980;2023-02-15T07:57:30;19.73;;;10.70;;
14143;SDS011;7152;48.348;10.980;2023-02-15T07:59:55;20.47;;;11.63;;
14143;SDS011;7152;48.348;10.980;2023-02-15T08:02:21;74.53;;;14.67;;
14143;SDS011;7152;48.348;10.980;2023-02-15T08:04:47;24.17;;;12.17;;
14143;SDS011;7152;48.348;10.980;2023-02-15T08:07:12;29.40;;;11.97;;
14143;SDS011;7152;48.348;10.980;2023-02-15T08:09:38;53.53;;;12.93;;
14143;SDS011;7152;48.348;10.980;2023-02-15T08:12:03;18.23;;;10.57;;
14143;SDS011;7152;48.348;10.980;2023-02-15T08:14:29;21.87;;;12.00;;
14143;SDS011;7152;48.348;10.980;2023-02-15T08:16:58;23.47;;;11.67;;
14143;SDS011;7152;48.348;10.980;2023-02-15T08:19:30;22.50;;;12.50;;
14143;SDS011;7152;48.348;10.980;2023-02-15T08:21:58;32.07;;;12.33;;
14143;SDS011;7152;48.348;10.980;2023-02-15T08:24:26;35.27;;;13.67;;
14143;SDS011;7152;48.348;10.980;2023-02-15T08:26:55;25.20;;;13.30;;
14143;SDS011;7152;48.348;10.980;2023-02-15T08:29:22;28.80;;;12.10;;
14143;SDS011;7152;48.348;10.980;2023-02-15T08:31:49;17.13;;;10.83;;
14143;SDS011;7152;48.348;10.980;2023-02-15T08:34:20;75.73;;;15.60;;
14143;SDS011;7152;48.348;10.980;2023-02-15T08:36:46;59.17;;;13.80;;
14143;SDS011;7152;48.348;10.980;2023-02-15T08:39:12;42.67;;;14.10;;
14143;SDS011;7152;48.348;10.980;2023-02-15T08:41:41;39.13;;;13.10;;
14143;SDS011;7152;48.348;10.980;2023-02-15T08:44:07;36.17;;;13.00;;
14143;SDS011;7152;48.348;10.980;2023-02-15T08:46:34;44.00;;;13.80;;
14143;SDS011;7152;48.348;10.980;2023-02-15T08:49:01;51.97;;;12.90;;
14143;SDS011;7152;48.348;10.980;2023-02-15T08:51:29;57.60;;;15.00;;
14143;SDS011;7152;48.348;10.980;2023-02-15T08:53:57;43.23;;;12.97;;
14143;SDS011;7152;48.348;10.980;2023-02-15T08:56:27;45.13;;;11.73;;
14143;SDS011;7152;48.348;10.980;2023-02-15T08:58:56;32.83;;;12.37;;
14143;SDS011;7152;48.348;10.980;2023-02-15T09:01:24;25.53;;;13.03;;
14143;SDS011;7152;48.348;10.980;2023-02-15T09:03:51;36.93;;;12.13;;
14143;SDS011;7152;48.348;10.980;2023-02-15T09:06:21;34.37;;;11.43;;
14143;SDS011;7152;48.348;10.980;2023-02-15T09:08:48;74.33;;;15.70;;
14143;SDS011;7152;48.348;10.980;2023-02-15T09:11:15;22.37;;;11.67;;
14143;SDS011;7152;48.348;10.980;2023-02-15T09:13:52;14.03;;;11.57;;
14143;SDS011;7152;48.348;10.980;2023-02-15T09:16:21;18.40;;;11.27;;
14143;SDS011;7152;48.348;10.980;2023-02-15T09:18:48;37.00;;;12.47;;
14143;SDS011;7152;48.348;10.980;2023-02-15T09:21:15;24.50;;;12.87;;
14143;SDS011;7152;48.348;10.980;2023-02-15T09:23:43;52.93;;;13.57;;
14143;SDS011;7152;48.348;10.980;2023-02-15T09:26:11;17.77;;;12.13;;
14143;SDS011;7152;48.348;10.980;2023-02-15T09:28:38;16.00;;;10.77;;
14143;SDS011;7152;48.348;10.980;2023-02-15T09:31:08;22.03;;;12.73;;
14143;SDS011;7152;48.348;10.980;2023-02-15T09:33:34;17.23;;;11.90;;
14143;SDS011;7152;48.348;10.980;2023-02-15T09:36:01;16.43;;;11.70;;
14143;SDS011;7152;48.348;10.980;2023-02-15T09:38:30;21.77;;;13.20;;
14143;SDS011;7152;48.348;10.980;2023-02-15T09:49:17;16.27;;;11.80;;
14143;SDS011;7152;48.348;10.980;2023-02-15T09:57:35;15.73;;;11.43;;
14143;SDS011;7152;48.348;10.980;2023-02-15T10:05:57;14.77;;;12.90;;
14143;SDS011;7152;48.348;10.980;2023-02-15T10:11:56;12.10;;;10.80;;
14143;SDS011;7152;48.348;10.980;2023-02-15T10:17:07;15.40;;;12.70;;
14143;SDS011;7152;48.348;10.980;2023-02-15T10:19:58;13.83;;;12.43;;
14143;SDS011;7152;48.348;10.980;2023-02-15T10:25:17;14.93;;;12.50;;
14143;SDS011;7152;48.348;10.980;2023-02-15T10:28:13;15.10;;;13.50;;
14143;SDS011;7152;48.348;10.980;2023-02-15T10:30:48;13.20;;;11.80;;
14143;SDS011;7152;48.348;10.980;2023-02-15T10:51:19;16.50;;;13.37;;
14143;SDS011;7152;48.348;10.980;2023-02-15T10:59:39;13.77;;;12.37;;
14143;SDS011;7152;48.348;10.980;2023-02-15T11:05:24;15.60;;;14.03;;
14143;SDS011;7152;48.348;10.980;2023-02-15T11:08:24;16.13;;;14.43;;
14143;SDS011;7152;48.348;10.980;2023-02-15T11:10:52;16.67;;;14.13;;
14143;SDS011;7152;48.348;10.980;2023-02-15T11:13:23;14.87;;;13.47;;
14143;SDS011;7152;48.348;10.980;2023-02-15T11:18:31;15.17;;;13.63;;
14143;SDS011;7152;48.348;10.980;2023-02-15T11:21:04;16.57;;;14.77;;
14143;SDS011;7152;48.348;10.980;2023-02-15T11:23:39;17.20;;;14.83;;
14143;SDS011;7152;48.348;10.980;2023-02-15T11:26:15;16.23;;;13.80;;
14143;SDS011;7152;48.348;10.980;2023-02-15T11:28:49;15.23;;;13.30;;
14143;SDS011;7152;48.348;10.980;2023-02-15T11:31:23;15.50;;;13.67;;
14143;SDS011;7152;48.348;10.980;2023-02-15T11:33:51;15.03;;;13.53;;
14143;SDS011;7152;48.348;10.980;2023-02-15T11:36:32;16.50;;;14.20;;
14143;SDS011;7152;48.348;10.980;2023-02-15T11:39:03;15.13;;;13.53;;
14143;SDS011;7152;48.348;10.980;2023-02-15T11:41:39;16.80;;;14.67;;
14143;SDS011;7152;48.348;10.980;2023-02-15T11:44:16;17.97;;;14.47;;
14143;SDS011;7152;48.348;10.980;2023-02-15T11:46:57;16.00;;;13.97;;
14143;SDS011;7152;48.348;10.980;2023-02-15T11:52:03;15.97;;;13.90;;
14143;SDS011;7152;48.348;10.980;2023-02-15T11:54:32;16.10;;;14.40;;
14143;SDS011;7152;48.348;10.980;2023-02-15T11:57:12;15.37;;;13.87;;
14143;SDS011;7152;48.348;10.980;2023-02-15T11:59:46;15.17;;;13.50;;
14143;SDS011;7152;48.348;10.980;2023-02-15T12:02:29;14.37;;;12.40;;
14143;SDS011;7152;48.348;10.980;2023-02-15T12:05:01;14.90;;;13.30;;
14143;SDS011;7152;48.348;10.980;2023-02-15T12:07:34;15.33;;;13.57;;
14143;SDS011;7152;48.348;10.980;2023-02-15T12:12:42;14.10;;;12.67;;
14143;SDS011;7152;48.348;10.980;2023-02-15T12:15:09;14.53;;;12.93;;
14143;SDS011;7152;48.348;10.980;2023-02-15T12:17:39;14.57;;;13.00;;
14143;SDS011;7152;48.348;10.980;2023-02-15T12:22:38;14.43;;;12.90;;
14143;SDS011;7152;48.348;10.980;2023-02-15T12:25:23;13.63;;;12.13;;
14143;SDS011;7152;48.348;10.980;2023-02-15T12:27:50;14.53;;;13.13;;
14143;SDS011;7152;48.348;10.980;2023-02-15T12:30:30;14.13;;;12.73;;
14143;SDS011;7152;48.348;10.980;2023-02-15T12:33:22;13.53;;;12.13;;
14143;SDS011;7152;48.348;10.980;2023-02-15T12:35:47;14.30;;;12.80;;
14143;SDS011;7152;48.348;10.980;2023-02-15T12:38:23;12.87;;;11.57;;
14143;SDS011;7152;48.348;10.980;2023-02-15T12:40:58;13.77;;;12.27;;
14143;SDS011;7152;48.348;10.980;2023-02-15T12:43:46;14.03;;;12.63;;
14143;SDS011;7152;48.348;10.980;2023-02-15T12:46:24;13.60;;;12.23;;
14143;SDS011;7152;48.348;10.980;2023-02-15T12:49:04;14.27;;;12.77;;
14143;SDS011;7152;48.348;10.980;2023-02-15T12:51:42;13.67;;;12.27;;
14143;SDS011;7152;48.348;10.980;2023-02-15T12:57:12;12.70;;;11.40;;
14143;SDS011;7152;48.348;10.980;2023-02-15T13:00:00;13.83;;;12.53;;
14143;SDS011;7152;48.348;10.980;2023-02-15T13:05:04;13.00;;;11.63;;
14143;SDS011;7152;48.348;10.980;2023-02-15T13:10:37;11.87;;;10.77;;
14143;SDS011;7152;48.348;10.980;2023-02-15T13:13:18;12.50;;;11.27;;
14143;SDS011;7152;48.348;10.980;2023-02-15T13:15:48;12.37;;;10.43;;
14143;SDS011;7152;48.348;10.980;2023-02-15T13:18:17;12.23;;;11.00;;
14143;SDS011;7152;48.348;10.980;2023-02-15T13:20:50;12.57;;;11.40;;
14143;SDS011;7152;48.348;10.980;2023-02-15T13:23:35;12.63;;;11.33;;
14143;SDS011;7152;48.348;10.980;2023-02-15T13:26:04;13.13;;;11.40;;
14143;SDS011;7152;48.348;10.980;2023-02-15T13:28:42;12.37;;;11.10;;
14143;SDS011;7152;48.348;10.980;2023-02-15T13:31:13;13.60;;;12.20;;
14143;SDS011;7152;48.348;10.980;2023-02-15T13:33:56;13.83;;;12.33;;
14143;SDS011;7152;48.348;10.980;2023-02-15T13:36:33;13.23;;;12.03;;
14143;SDS011;7152;48.348;10.980;2023-02-15T13:41:47;12.63;;;11.33;;
14143;SDS011;7152;48.348;10.980;2023-02-15T13:47:34;12.30;;;11.10;;
14143;SDS011;7152;48.348;10.980;2023-02-15T13:52:46;12.80;;;11.70;;
14143;SDS011;7152;48.348;10.980;2023-02-15T14:01:09;12.33;;;11.10;;
14143;SDS011;7152;48.348;10.980;2023-02-15T14:09:21;13.27;;;11.87;;
14143;SDS011;7152;48.348;10.980;2023-02-15T14:12:31;13.63;;;12.10;;
14143;SDS011;7152;48.348;10.980;2023-02-15T14:20:47;14.47;;;13.03;;
14143;SDS011;7152;48.348;10.980;2023-02-15T14:26:08;14.10;;;12.70;;
14143;SDS011;7152;48.348;10.980;2023-02-15T14:31:57;17.73;;;14.57;;
14143;SDS011;7152;48.348;10.980;2023-02-15T14:34:37;15.53;;;13.50;;
14143;SDS011;7152;48.348;10.980;2023-02-15T14:37:12;16.23;;;13.83;;
14143;SDS011;7152;48.348;10.980;2023-02-15T14:39:51;22.47;;;14.07;;
14143;SDS011;7152;48.348;10.980;2023-02-15T14:45:29;16.87;;;14.30;;
14143;SDS011;7152;48.348;10.980;2023-02-15T14:50:47;16.40;;;13.83;;
14143;SDS011;7152;48.348;10.980;2023-02-15T14:53:20;16.83;;;15.03;;
14143;SDS011;7152;48.348;10.980;2023-02-15T14:56:06;17.80;;;14.87;;
14143;SDS011;7152;48.348;10.980;2023-02-15T15:01:14;16.90;;;14.67;;
14143;SDS011;7152;48.348;10.980;2023-02-15T15:03:48;17.03;;;14.53;;
14143;SDS011;7152;48.348;10.980;2023-02-15T15:06:31;17.20;;;15.07;;
14143;SDS011;7152;48.348;10.980;2023-02-15T15:09:00;16.33;;;14.63;;
14143;SDS011;7152;48.348;10.980;2023-02-15T15:11:40;17.60;;;15.37;;
14143;SDS011;7152;48.348;10.980;2023-02-15T15:14:35;16.33;;;14.53;;
14143;SDS011;7152;48.348;10.980;2023-02-15T15:16:56;17.70;;;15.23;;
14143;SDS011;7152;48.348;10.980;2023-02-15T15:22:22;18.17;;;15.20;;
14143;SDS011;7152;48.348;10.980;2023-02-15T15:25:10;18.17;;;15.33;;
14143;SDS011;7152;48.348;10.980;2023-02-15T15:27:42;16.97;;;14.40;;
14143;SDS011;7152;48.348;10.980;2023-02-15T15:32:54;17.27;;;15.33;;
14143;SDS011;7152;48.348;10.980;2023-02-15T15:39:06;19.87;;;16.40;;
14143;SDS011;7152;48.348;10.980;2023-02-15T15:50:18;18.33;;;15.60;;
14143;SDS011;7152;48.348;10.980;2023-02-15T15:52:54;19.33;;;16.30;;
14143;SDS011;7152;48.348;10.980;2023-02-15T15:55:24;18.57;;;16.57;;
14143;SDS011;7152;48.348;10.980;2023-02-15T15:57:52;19.03;;;16.83;;
14143;SDS011;7152;48.348;10.980;2023-02-15T16:00:33;19.13;;;17.13;;
14143;SDS011;7152;48.348;10.980;2023-02-15T16:03:02;20.47;;;17.63;;
14143;SDS011;7152;48.348;10.980;2023-02-15T16:05:34;19.37;;;17.23;;
14143;SDS011;7152;48.348;10.980;2023-02-15T16:08:01;19.23;;;15.77;;
14143;SDS011;7152;48.348;10.980;2023-02-15T16:10:27;19.50;;;16.73;;
14143;SDS011;7152;48.348;10.980;2023-02-15T16:12:57;19.90;;;17.87;;
14143;SDS011;7152;48.348;10.980;2023-02-15T16:18:17;22.37;;;17.57;;
14143;SDS011;7152;48.348;10.980;2023-02-15T16:20:50;19.40;;;16.87;;
14143;SDS011;7152;48.348;10.980;2023-02-15T16:28:49;20.87;;;18.33;;
14143;SDS011;7152;48.348;10.980;2023-02-15T16:31:16;21.67;;;19.13;;
14143;SDS011;7152;48.348;10.980;2023-02-15T16:33:43;22.67;;;19.33;;
14143;SDS011;7152;48.348;10.980;2023-02-15T16:36:20;24.30;;;19.57;;
14143;SDS011;7152;48.348;10.980;2023-02-15T16:41:25;25.03;;;20.40;;
14143;SDS011;7152;48.348;10.980;2023-02-15T16:43:53;23.33;;;19.03;;
14143;SDS011;7152;48.348;10.980;2023-02-15T16:46:25;24.27;;;19.93;;
14143;SDS011;7152;48.348;10.980;2023-02-15T16:48:52;23.13;;;20.63;;
14143;SDS011;7152;48.348;10.980;2023-02-15T16:51:22;29.00;;;23.23;;
14143;SDS011;7152;48.348;10.980;2023-02-15T16:53:51;25.93;;;21.53;;
14143;SDS011;7152;48.348;10.980;2023-02-15T16:56:21;27.47;;;21.97;;
14143;SDS011;7152;48.348;10.980;2023-02-15T16:58:51;27.60;;;22.80;;
14143;SDS011;7152;48.348;10.980;2023-02-15T17:01:20;27.53;;;22.13;;
14143;SDS011;7152;48.348;10.980;2023-02-15T17:03:49;26.90;;;22.00;;
14143;SDS011;7152;48.348;10.980;2023-02-15T17:06:20;29.90;;;24.03;;
14143;SDS011;7152;48.348;10.980;2023-02-15T17:08:48;29.10;;;23.60;;
14143;SDS011;7152;48.348;10.980;2023-02-15T17:11:33;31.57;;;24.70;;
14143;SDS011;7152;48.348;10.980;2023-02-15T17:16:40;32.73;;;25.70;;
14143;SDS011;7152;48.348;10.980;2023-02-15T17:19:15;29.47;;;23.57;;
14143;SDS011;7152;48.348;10.980;2023-02-15T17:21:48;29.93;;;23.83;;
14143;SDS011;7152;48.348;10.980;2023-02-15T17:24:17;37.60;;;25.93;;
14143;SDS011;7152;48.348;10.980;2023-02-15T17:26:53;32.57;;;25.10;;
14143;SDS011;7152;48.348;10.980;2023-02-15T17:29:31;35.23;;;26.23;;
14143;SDS011;7152;48.348;10.980;2023-02-15T17:32:20;31.70;;;24.20;;
14143;SDS011;7152;48.348;10.980;2023-02-15T17:39:56;32.80;;;24.83;;
14143;SDS011;7152;48.348;10.980;2023-02-15T17:42:23;30.83;;;25.67;;
14143;SDS011;7152;48.348;10.980;2023-02-15T17:44:49;35.13;;;27.80;;
14143;SDS011;7152;48.348;10.980;2023-02-15T17:47:18;33.87;;;26.47;;